Weather at Harrismith Airport

Public forecast

Using degrees Celsius for public forecast. Weather courtesy of forecast.io.

Closest aviation weather report (METAR) to Harrismith Airport

Closest report is Perth Jandakot Airport, 112.5 nm (208.4 km) WNW. Retrieved 2020/10/24 05:30 UTC (0 seconds ago):

YPJT 240530Z AUTO 08007KT 9999 // NCD 27/06 Q1015 RF000/0000

Closest aviation forecast (TAF) to Harrismith Airport

Forecast is more than 12 hours old.

Closest forecast is Perth Jandakot Airport, 112.5 nm (208.4 km) WNW. Retrieved 2020/10/23 12:00 UTC (17 hours ago):

TAF YPJT 231112Z 2312/2406 18010KT CAVOK FM231600 10012KT CAVOK